sensor_id;sensor_type;location;lat;lon;timestamp;temperature;humidity
13074;DHT22;6603;47.066;15.396;2024-03-25T00:00:28;2.00;99.90
13074;DHT22;6603;47.066;15.396;2024-03-25T00:02:53;1.90;99.90
13074;DHT22;6603;47.066;15.396;2024-03-25T00:05:19;1.70;99.90
13074;DHT22;6603;47.066;15.396;2024-03-25T00:07:51;1.90;99.90
13074;DHT22;6603;47.066;15.396;2024-03-25T00:10:18;2.10;99.90
13074;DHT22;6603;47.066;15.396;2024-03-25T00:12:47;2.10;99.90
13074;DHT22;6603;47.066;15.396;2024-03-25T00:15:18;2.00;99.90
13074;DHT22;6603;47.066;15.396;2024-03-25T00:17:48;2.10;99.90
13074;DHT22;6603;47.066;15.396;2024-03-25T00:20:14;1.60;99.90
13074;DHT22;6603;47.066;15.396;2024-03-25T00:22:41;1.80;99.90
13074;DHT22;6603;47.066;15.396;2024-03-25T00:25:07;1.70;99.90
13074;DHT22;6603;47.066;15.396;2024-03-25T00:27:34;1.40;99.90
13074;DHT22;6603;47.066;15.396;2024-03-25T00:30:00;1.30;99.90
13074;DHT22;6603;47.066;15.396;2024-03-25T00:32:26;1.40;99.90
13074;DHT22;6603;47.066;15.396;2024-03-25T00:34:52;1.60;99.90
13074;DHT22;6603;47.066;15.396;2024-03-25T00:37:18;1.70;99.90
13074;DHT22;6603;47.066;15.396;2024-03-25T00:39:44;1.70;99.90
13074;DHT22;6603;47.066;15.396;2024-03-25T00:42:11;1.50;99.90
13074;DHT22;6603;47.066;15.396;2024-03-25T00:44:38;1.60;99.90
13074;DHT22;6603;47.066;15.396;2024-03-25T00:47:03;1.40;99.90
13074;DHT22;6603;47.066;15.396;2024-03-25T00:49:29;1.60;99.90
13074;DHT22;6603;47.066;15.396;2024-03-25T00:51:55;1.90;99.90
13074;DHT22;6603;47.066;15.396;2024-03-25T00:54:21;1.50;99.90
13074;DHT22;6603;47.066;15.396;2024-03-25T00:56:49;1.30;99.90
13074;DHT22;6603;47.066;15.396;2024-03-25T00:59:15;1.60;99.90
13074;DHT22;6603;47.066;15.396;2024-03-25T01:01:41;1.80;99.90
13074;DHT22;6603;47.066;15.396;2024-03-25T01:04:07;1.90;99.90
13074;DHT22;6603;47.066;15.396;2024-03-25T01:06:33;1.80;99.90
13074;DHT22;6603;47.066;15.396;2024-03-25T01:08:59;1.90;99.90
13074;DHT22;6603;47.066;15.396;2024-03-25T01:11:25;1.30;99.90
13074;DHT22;6603;47.066;15.396;2024-03-25T01:13:51;1.70;99.90
13074;DHT22;6603;47.066;15.396;2024-03-25T01:18:43;1.70;99.90
13074;DHT22;6603;47.066;15.396;2024-03-25T01:21:09;1.90;99.90
13074;DHT22;6603;47.066;15.396;2024-03-25T01:23:35;1.60;99.90
13074;DHT22;6603;47.066;15.396;2024-03-25T01:26:01;1.60;99.90
13074;DHT22;6603;47.066;15.396;2024-03-25T01:28:26;1.50;99.90
13074;DHT22;6603;47.066;15.396;2024-03-25T01:30:53;1.40;99.90
13074;DHT22;6603;47.066;15.396;2024-03-25T01:33:20;1.30;99.90
13074;DHT22;6603;47.066;15.396;2024-03-25T01:35:46;1.30;99.90
13074;DHT22;6603;47.066;15.396;2024-03-25T01:38:12;1.60;99.90
13074;DHT22;6603;47.066;15.396;2024-03-25T01:40:37;1.10;99.90
13074;DHT22;6603;47.066;15.396;2024-03-25T01:43:03;1.00;99.90
13074;DHT22;6603;47.066;15.396;2024-03-25T01:45:31;1.00;99.90
13074;DHT22;6603;47.066;15.396;2024-03-25T01:47:59;1.40;99.90
13074;DHT22;6603;47.066;15.396;2024-03-25T01:50:28;1.30;99.90
13074;DHT22;6603;47.066;15.396;2024-03-25T01:52:56;1.20;99.90
13074;DHT22;6603;47.066;15.396;2024-03-25T01:55:25;1.20;99.90
13074;DHT22;6603;47.066;15.396;2024-03-25T01:57:52;1.00;99.90
13074;DHT22;6603;47.066;15.396;2024-03-25T02:00:18;0.90;99.90
13074;DHT22;6603;47.066;15.396;2024-03-25T02:02:45;0.80;99.90
13074;DHT22;6603;47.066;15.396;2024-03-25T02:05:14;1.00;99.90
13074;DHT22;6603;47.066;15.396;2024-03-25T02:07:40;1.40;99.90
13074;DHT22;6603;47.066;15.396;2024-03-25T02:10:08;1.10;99.90
13074;DHT22;6603;47.066;15.396;2024-03-25T02:12:45;1.20;99.90
13074;DHT22;6603;47.066;15.396;2024-03-25T02:15:12;1.50;99.90
13074;DHT22;6603;47.066;15.396;2024-03-25T02:17:41;1.50;99.90
13074;DHT22;6603;47.066;15.396;2024-03-25T02:20:08;1.10;99.90
13074;DHT22;6603;47.066;15.396;2024-03-25T02:22:37;0.90;99.90
13074;DHT22;6603;47.066;15.396;2024-03-25T02:25:08;0.90;99.90
13074;DHT22;6603;47.066;15.396;2024-03-25T02:27:34;1.00;99.90
13074;DHT22;6603;47.066;15.396;2024-03-25T02:30:08;1.30;99.90
13074;DHT22;6603;47.066;15.396;2024-03-25T02:32:36;1.00;99.90
13074;DHT22;6603;47.066;15.396;2024-03-25T02:35:04;1.00;99.90
13074;DHT22;6603;47.066;15.396;2024-03-25T02:37:31;1.20;99.90
13074;DHT22;6603;47.066;15.396;2024-03-25T02:39:59;0.90;99.90
13074;DHT22;6603;47.066;15.396;2024-03-25T02:44:56;1.00;99.90
13074;DHT22;6603;47.066;15.396;2024-03-25T02:47:21;1.10;99.90
13074;DHT22;6603;47.066;15.396;2024-03-25T02:49:48;1.40;99.90
13074;DHT22;6603;47.066;15.396;2024-03-25T02:52:14;1.10;99.90
13074;DHT22;6603;47.066;15.396;2024-03-25T02:54:40;1.00;99.90
13074;DHT22;6603;47.066;15.396;2024-03-25T02:57:06;0.80;99.90
13074;DHT22;6603;47.066;15.396;2024-03-25T02:59:32;0.70;99.90
13074;DHT22;6603;47.066;15.396;2024-03-25T03:01:58;0.60;99.90
13074;DHT22;6603;47.066;15.396;2024-03-25T03:04:23;0.80;99.90
13074;DHT22;6603;47.066;15.396;2024-03-25T03:06:49;0.80;99.90
13074;DHT22;6603;47.066;15.396;2024-03-25T03:09:15;0.80;99.90
13074;DHT22;6603;47.066;15.396;2024-03-25T03:11:41;0.80;99.90
13074;DHT22;6603;47.066;15.396;2024-03-25T03:14:07;0.80;99.90
13074;DHT22;6603;47.066;15.396;2024-03-25T03:16:33;0.70;99.90
13074;DHT22;6603;47.066;15.396;2024-03-25T03:18:59;0.80;99.90
13074;DHT22;6603;47.066;15.396;2024-03-25T03:21:25;1.00;99.90
13074;DHT22;6603;47.066;15.396;2024-03-25T03:23:51;0.70;99.90
13074;DHT22;6603;47.066;15.396;2024-03-25T03:26:17;0.80;99.90
13074;DHT22;6603;47.066;15.396;2024-03-25T03:28:43;0.80;99.90
13074;DHT22;6603;47.066;15.396;2024-03-25T03:31:09;0.70;99.90
13074;DHT22;6603;47.066;15.396;2024-03-25T03:33:35;0.70;99.90
13074;DHT22;6603;47.066;15.396;2024-03-25T03:36:01;0.90;99.90
13074;DHT22;6603;47.066;15.396;2024-03-25T03:38:27;0.60;99.90
13074;DHT22;6603;47.066;15.396;2024-03-25T03:40:57;0.50;99.90
13074;DHT22;6603;47.066;15.396;2024-03-25T03:43:23;0.50;99.90
13074;DHT22;6603;47.066;15.396;2024-03-25T03:45:49;0.40;99.90
13074;DHT22;6603;47.066;15.396;2024-03-25T03:48:15;0.50;99.90
13074;DHT22;6603;47.066;15.396;2024-03-25T03:50:42;0.40;99.90
13074;DHT22;6603;47.066;15.396;2024-03-25T03:53:08;0.70;99.90
13074;DHT22;6603;47.066;15.396;2024-03-25T03:55:34;0.80;99.90
13074;DHT22;6603;47.066;15.396;2024-03-25T03:57:59;0.50;99.90
13074;DHT22;6603;47.066;15.396;2024-03-25T04:00:25;0.50;99.90
13074;DHT22;6603;47.066;15.396;2024-03-25T04:02:51;0.80;99.90
13074;DHT22;6603;47.066;15.396;2024-03-25T04:05:17;0.70;99.90
13074;DHT22;6603;47.066;15.396;2024-03-25T04:07:43;1.10;99.90
13074;DHT22;6603;47.066;15.396;2024-03-25T04:10:09;0.90;99.90
13074;DHT22;6603;47.066;15.396;2024-03-25T04:12:36;0.70;99.90
13074;DHT22;6603;47.066;15.396;2024-03-25T04:15:03;0.70;99.90
13074;DHT22;6603;47.066;15.396;2024-03-25T04:17:29;0.70;99.90
13074;DHT22;6603;47.066;15.396;2024-03-25T04:19:55;1.10;99.90
13074;DHT22;6603;47.066;15.396;2024-03-25T04:22:24;0.80;99.90
13074;DHT22;6603;47.066;15.396;2024-03-25T04:24:49;0.90;99.90
13074;DHT22;6603;47.066;15.396;2024-03-25T04:27:15;1.20;99.90
13074;DHT22;6603;47.066;15.396;2024-03-25T04:29:41;1.20;99.90
13074;DHT22;6603;47.066;15.396;2024-03-25T04:32:07;0.80;99.90
13074;DHT22;6603;47.066;15.396;2024-03-25T04:34:34;1.00;99.90
13074;DHT22;6603;47.066;15.396;2024-03-25T04:37:00;0.90;99.90
13074;DHT22;6603;47.066;15.396;2024-03-25T04:39:26;0.80;99.90
13074;DHT22;6603;47.066;15.396;2024-03-25T04:41:52;0.90;99.90
13074;DHT22;6603;47.066;15.396;2024-03-25T04:44:18;0.90;99.90
13074;DHT22;6603;47.066;15.396;2024-03-25T04:46:45;0.80;99.90
13074;DHT22;6603;47.066;15.396;2024-03-25T04:49:10;0.60;99.90
13074;DHT22;6603;47.066;15.396;2024-03-25T04:51:36;0.90;99.90
13074;DHT22;6603;47.066;15.396;2024-03-25T04:54:03;1.20;99.90
13074;DHT22;6603;47.066;15.396;2024-03-25T04:56:29;1.40;99.90
13074;DHT22;6603;47.066;15.396;2024-03-25T04:58:56;1.30;99.90
13074;DHT22;6603;47.066;15.396;2024-03-25T05:01:25;1.30;99.90
13074;DHT22;6603;47.066;15.396;2024-03-25T05:03:51;1.10;99.90
13074;DHT22;6603;47.066;15.396;2024-03-25T05:06:17;1.10;99.90
13074;DHT22;6603;47.066;15.396;2024-03-25T05:08:43;1.30;99.90
13074;DHT22;6603;47.066;15.396;2024-03-25T05:11:10;1.40;99.90
13074;DHT22;6603;47.066;15.396;2024-03-25T05:13:35;1.20;99.90
13074;DHT22;6603;47.066;15.396;2024-03-25T05:16:01;1.30;99.90
13074;DHT22;6603;47.066;15.396;2024-03-25T05:18:27;1.30;99.90
13074;DHT22;6603;47.066;15.396;2024-03-25T05:20:53;1.50;99.90
13074;DHT22;6603;47.066;15.396;2024-03-25T05:23:19;1.60;99.90
13074;DHT22;6603;47.066;15.396;2024-03-25T05:25:45;1.80;99.90
13074;DHT22;6603;47.066;15.396;2024-03-25T05:28:11;1.70;99.90
13074;DHT22;6603;47.066;15.396;2024-03-25T05:30:39;1.60;99.90
13074;DHT22;6603;47.066;15.396;2024-03-25T05:33:05;2.00;99.90
13074;DHT22;6603;47.066;15.396;2024-03-25T05:35:30;2.30;99.90
13074;DHT22;6603;47.066;15.396;2024-03-25T05:37:59;2.30;99.90
13074;DHT22;6603;47.066;15.396;2024-03-25T05:40:25;2.30;99.90
13074;DHT22;6603;47.066;15.396;2024-03-25T05:42:51;2.30;99.90
13074;DHT22;6603;47.066;15.396;2024-03-25T05:45:17;2.00;99.90
13074;DHT22;6603;47.066;15.396;2024-03-25T05:47:43;2.40;99.90
13074;DHT22;6603;47.066;15.396;2024-03-25T05:50:08;2.40;99.90
13074;DHT22;6603;47.066;15.396;2024-03-25T05:52:34;2.20;99.90
13074;DHT22;6603;47.066;15.396;2024-03-25T05:55:01;2.50;99.90
13074;DHT22;6603;47.066;15.396;2024-03-25T05:57:27;2.40;99.90
13074;DHT22;6603;47.066;15.396;2024-03-25T05:59:53;2.50;99.90
13074;DHT22;6603;47.066;15.396;2024-03-25T06:02:19;2.40;99.90
13074;DHT22;6603;47.066;15.396;2024-03-25T06:04:45;2.50;99.90
13074;DHT22;6603;47.066;15.396;2024-03-25T06:07:11;2.40;99.90
13074;DHT22;6603;47.066;15.396;2024-03-25T06:09:37;2.60;99.90
13074;DHT22;6603;47.066;15.396;2024-03-25T06:12:02;2.50;99.90
13074;DHT22;6603;47.066;15.396;2024-03-25T06:14:28;2.60;99.90
13074;DHT22;6603;47.066;15.396;2024-03-25T06:16:54;2.60;99.90
13074;DHT22;6603;47.066;15.396;2024-03-25T06:19:20;2.60;99.90
13074;DHT22;6603;47.066;15.396;2024-03-25T06:21:45;2.80;99.90
13074;DHT22;6603;47.066;15.396;2024-03-25T06:24:11;2.90;99.90
13074;DHT22;6603;47.066;15.396;2024-03-25T06:26:37;2.90;99.90
13074;DHT22;6603;47.066;15.396;2024-03-25T06:29:02;3.00;99.90
13074;DHT22;6603;47.066;15.396;2024-03-25T06:31:28;2.80;99.90
13074;DHT22;6603;47.066;15.396;2024-03-25T06:34:12;2.80;99.90
13074;DHT22;6603;47.066;15.396;2024-03-25T06:36:48;2.70;99.90
13074;DHT22;6603;47.066;15.396;2024-03-25T06:39:14;3.00;99.90
13074;DHT22;6603;47.066;15.396;2024-03-25T06:41:40;3.00;99.90
13074;DHT22;6603;47.066;15.396;2024-03-25T06:44:06;3.20;99.90
13074;DHT22;6603;47.066;15.396;2024-03-25T06:46:33;3.20;99.90
13074;DHT22;6603;47.066;15.396;2024-03-25T06:48:59;3.30;99.90
13074;DHT22;6603;47.066;15.396;2024-03-25T06:51:25;3.10;99.90
13074;DHT22;6603;47.066;15.396;2024-03-25T06:53:51;3.00;99.90
13074;DHT22;6603;47.066;15.396;2024-03-25T06:56:17;3.20;99.90
13074;DHT22;6603;47.066;15.396;2024-03-25T06:58:42;3.10;99.90
13074;DHT22;6603;47.066;15.396;2024-03-25T07:01:11;2.90;99.90
13074;DHT22;6603;47.066;15.396;2024-03-25T07:03:40;3.30;99.90
13074;DHT22;6603;47.066;15.396;2024-03-25T07:06:06;3.50;99.90
13074;DHT22;6603;47.066;15.396;2024-03-25T07:08:32;3.60;99.90
13074;DHT22;6603;47.066;15.396;2024-03-25T07:10:59;3.60;99.90
13074;DHT22;6603;47.066;15.396;2024-03-25T07:13:25;3.70;99.90
13074;DHT22;6603;47.066;15.396;2024-03-25T07:15:52;3.80;99.90
13074;DHT22;6603;47.066;15.396;2024-03-25T07:18:17;3.70;91.10
13074;DHT22;6603;47.066;15.396;2024-03-25T07:20:44;3.80;99.90
13074;DHT22;6603;47.066;15.396;2024-03-25T07:23:10;4.00;94.10
13074;DHT22;6603;47.066;15.396;2024-03-25T07:25:37;4.20;62.10
13074;DHT22;6603;47.066;15.396;2024-03-25T07:28:03;4.20;79.20
13074;DHT22;6603;47.066;15.396;2024-03-25T07:30:30;4.30;94.70
13074;DHT22;6603;47.066;15.396;2024-03-25T07:32:59;4.40;99.90
13074;DHT22;6603;47.066;15.396;2024-03-25T07:35:25;4.40;35.80
13074;DHT22;6603;47.066;15.396;2024-03-25T07:37:51;4.40;74.00
13074;DHT22;6603;47.066;15.396;2024-03-25T07:40:18;4.50;84.50
13074;DHT22;6603;47.066;15.396;2024-03-25T07:42:44;4.70;93.00
13074;DHT22;6603;47.066;15.396;2024-03-25T07:45:10;4.90;55.80
13074;DHT22;6603;47.066;15.396;2024-03-25T07:47:36;5.00;51.40
13074;DHT22;6603;47.066;15.396;2024-03-25T07:50:03;4.80;21.00
13074;DHT22;6603;47.066;15.396;2024-03-25T07:52:34;4.70;2.30
13074;DHT22;6603;47.066;15.396;2024-03-25T07:55:06;4.80;59.90
13074;DHT22;6603;47.066;15.396;2024-03-25T07:57:32;4.80;68.70
13074;DHT22;6603;47.066;15.396;2024-03-25T07:59:58;5.00;98.40
13074;DHT22;6603;47.066;15.396;2024-03-25T08:02:24;5.10;59.50
13074;DHT22;6603;47.066;15.396;2024-03-25T08:04:50;5.10;53.30
13074;DHT22;6603;47.066;15.396;2024-03-25T08:07:15;5.00;8.60
13074;DHT22;6603;47.066;15.396;2024-03-25T08:09:41;5.00;27.40
13074;DHT22;6603;47.066;15.396;2024-03-25T08:12:07;4.90;1.00
13074;DHT22;6603;47.066;15.396;2024-03-25T08:14:33;5.10;10.80
13074;DHT22;6603;47.066;15.396;2024-03-25T08:16:59;5.10;1.00
13074;DHT22;6603;47.066;15.396;2024-03-25T08:19:25;5.40;9.00
13074;DHT22;6603;47.066;15.396;2024-03-25T08:21:51;5.70;1.00
13074;DHT22;6603;47.066;15.396;2024-03-25T08:24:17;5.80;1.00
13074;DHT22;6603;47.066;15.396;2024-03-25T08:26:42;5.90;1.00
13074;DHT22;6603;47.066;15.396;2024-03-25T08:29:08;6.00;1.00
13074;DHT22;6603;47.066;15.396;2024-03-25T08:31:34;6.20;1.00
13074;DHT22;6603;47.066;15.396;2024-03-25T08:34:00;6.20;1.00
13074;DHT22;6603;47.066;15.396;2024-03-25T08:36:26;6.30;1.00
13074;DHT22;6603;47.066;15.396;2024-03-25T08:38:52;6.50;1.00
13074;DHT22;6603;47.066;15.396;2024-03-25T08:41:18;6.60;1.00
13074;DHT22;6603;47.066;15.396;2024-03-25T08:43:44;6.60;1.00
13074;DHT22;6603;47.066;15.396;2024-03-25T08:46:10;6.60;1.00
13074;DHT22;6603;47.066;15.396;2024-03-25T08:48:36;6.60;1.00
13074;DHT22;6603;47.066;15.396;2024-03-25T08:51:02;6.70;1.00
13074;DHT22;6603;47.066;15.396;2024-03-25T08:53:29;6.80;1.00
13074;DHT22;6603;47.066;15.396;2024-03-25T08:55:55;6.90;1.00
13074;DHT22;6603;47.066;15.396;2024-03-25T08:58:21;7.00;1.00
13074;DHT22;6603;47.066;15.396;2024-03-25T09:00:47;7.10;1.00
13074;DHT22;6603;47.066;15.396;2024-03-25T09:03:13;7.30;1.00
13074;DHT22;6603;47.066;15.396;2024-03-25T09:05:39;7.50;1.00
13074;DHT22;6603;47.066;15.396;2024-03-25T09:08:06;7.40;99.90
13074;DHT22;6603;47.066;15.396;2024-03-25T09:10:32;7.70;99.90
13074;DHT22;6603;47.066;15.396;2024-03-25T09:13:16;7.80;1.00
13074;DHT22;6603;47.066;15.396;2024-03-25T09:15:42;8.10;99.90
13074;DHT22;6603;47.066;15.396;2024-03-25T09:18:08;8.20;1.00
13074;DHT22;6603;47.066;15.396;2024-03-25T09:20:34;8.50;99.90
13074;DHT22;6603;47.066;15.396;2024-03-25T09:23:00;8.50;1.00
13074;DHT22;6603;47.066;15.396;2024-03-25T09:25:27;8.70;1.00
13074;DHT22;6603;47.066;15.396;2024-03-25T09:27:53;8.70;1.00
13074;DHT22;6603;47.066;15.396;2024-03-25T09:30:19;9.00;1.00
13074;DHT22;6603;47.066;15.396;2024-03-25T09:32:45;8.90;1.00
13074;DHT22;6603;47.066;15.396;2024-03-25T09:35:11;8.90;99.90
13074;DHT22;6603;47.066;15.396;2024-03-25T09:37:38;9.00;1.00
13074;DHT22;6603;47.066;15.396;2024-03-25T09:40:07;9.00;1.00
13074;DHT22;6603;47.066;15.396;2024-03-25T09:42:48;9.10;1.00
13074;DHT22;6603;47.066;15.396;2024-03-25T09:45:18;9.40;1.00
13074;DHT22;6603;47.066;15.396;2024-03-25T09:47:48;9.70;1.00
13074;DHT22;6603;47.066;15.396;2024-03-25T09:50:14;9.90;99.90
13074;DHT22;6603;47.066;15.396;2024-03-25T09:52:47;10.00;1.00
13074;DHT22;6603;47.066;15.396;2024-03-25T09:55:14;10.30;1.00
13074;DHT22;6603;47.066;15.396;2024-03-25T09:57:40;10.40;99.90
13074;DHT22;6603;47.066;15.396;2024-03-25T10:00:08;10.70;99.90
13074;DHT22;6603;47.066;15.396;2024-03-25T10:02:39;11.00;1.00
13074;DHT22;6603;47.066;15.396;2024-03-25T10:05:07;11.30;1.00
13074;DHT22;6603;47.066;15.396;2024-03-25T10:07:34;11.40;99.90
13074;DHT22;6603;47.066;15.396;2024-03-25T10:10:06;11.60;99.90
13074;DHT22;6603;47.066;15.396;2024-03-25T10:12:33;11.80;99.90
13074;DHT22;6603;47.066;15.396;2024-03-25T10:15:01;12.10;99.90
13074;DHT22;6603;47.066;15.396;2024-03-25T10:17:27;12.10;99.90
13074;DHT22;6603;47.066;15.396;2024-03-25T10:19:55;12.10;99.90
13074;DHT22;6603;47.066;15.396;2024-03-25T10:22:21;12.30;99.90
13074;DHT22;6603;47.066;15.396;2024-03-25T10:24:47;12.60;99.90
13074;DHT22;6603;47.066;15.396;2024-03-25T10:27:23;12.80;1.00
13074;DHT22;6603;47.066;15.396;2024-03-25T10:29:54;12.90;13.30
13074;DHT22;6603;47.066;15.396;2024-03-25T10:32:23;13.00;1.00
13074;DHT22;6603;47.066;15.396;2024-03-25T10:34:54;12.80;1.00
13074;DHT22;6603;47.066;15.396;2024-03-25T10:37:21;12.60;1.00
13074;DHT22;6603;47.066;15.396;2024-03-25T10:39:53;12.60;1.00
13074;DHT22;6603;47.066;15.396;2024-03-25T10:42:21;12.30;1.00
13074;DHT22;6603;47.066;15.396;2024-03-25T10:44:47;12.60;1.00
13074;DHT22;6603;47.066;15.396;2024-03-25T10:47:27;12.80;1.00
13074;DHT22;6603;47.066;15.396;2024-03-25T10:49:58;12.90;1.00
13074;DHT22;6603;47.066;15.396;2024-03-25T10:52:27;13.00;1.00
13074;DHT22;6603;47.066;15.396;2024-03-25T10:54:55;13.20;1.00
13074;DHT22;6603;47.066;15.396;2024-03-25T10:57:23;13.20;1.00
13074;DHT22;6603;47.066;15.396;2024-03-25T10:59:49;13.20;1.00
13074;DHT22;6603;47.066;15.396;2024-03-25T11:02:15;13.60;1.00
13074;DHT22;6603;47.066;15.396;2024-03-25T11:04:44;13.80;1.00
13074;DHT22;6603;47.066;15.396;2024-03-25T11:07:14;13.70;1.00
13074;DHT22;6603;47.066;15.396;2024-03-25T11:09:43;13.60;1.00
13074;DHT22;6603;47.066;15.396;2024-03-25T11:12:13;13.30;1.00
13074;DHT22;6603;47.066;15.396;2024-03-25T11:14:39;13.00;1.00
13074;DHT22;6603;47.066;15.396;2024-03-25T11:17:15;13.10;1.00
13074;DHT22;6603;47.066;15.396;2024-03-25T11:19:42;13.20;1.00
13074;DHT22;6603;47.066;15.396;2024-03-25T11:22:09;13.60;1.00
13074;DHT22;6603;47.066;15.396;2024-03-25T11:24:43;13.30;1.00
13074;DHT22;6603;47.066;15.396;2024-03-25T11:27:09;13.60;1.00
13074;DHT22;6603;47.066;15.396;2024-03-25T11:29:35;13.90;1.00
13074;DHT22;6603;47.066;15.396;2024-03-25T11:32:05;13.70;1.00
13074;DHT22;6603;47.066;15.396;2024-03-25T11:34:32;13.30;1.00
13074;DHT22;6603;47.066;15.396;2024-03-25T11:36:58;13.10;1.00
13074;DHT22;6603;47.066;15.396;2024-03-25T11:39:25;12.80;1.00
13074;DHT22;6603;47.066;15.396;2024-03-25T11:41:52;13.10;1.00
13074;DHT22;6603;47.066;15.396;2024-03-25T11:44:18;13.00;1.00
13074;DHT22;6603;47.066;15.396;2024-03-25T11:46:45;13.00;1.00
13074;DHT22;6603;47.066;15.396;2024-03-25T11:49:17;12.70;1.00
13074;DHT22;6603;47.066;15.396;2024-03-25T11:51:44;12.40;1.00
13074;DHT22;6603;47.066;15.396;2024-03-25T11:54:12;12.30;1.00
13074;DHT22;6603;47.066;15.396;2024-03-25T11:56:39;12.30;1.00
13074;DHT22;6603;47.066;15.396;2024-03-25T11:59:05;12.30;1.00
13074;DHT22;6603;47.066;15.396;2024-03-25T12:01:32;12.10;1.00
13074;DHT22;6603;47.066;15.396;2024-03-25T12:04:10;12.50;1.00
13074;DHT22;6603;47.066;15.396;2024-03-25T12:06:36;12.50;1.00
13074;DHT22;6603;47.066;15.396;2024-03-25T12:09:02;12.50;1.00
13074;DHT22;6603;47.066;15.396;2024-03-25T12:11:47;12.80;1.00
13074;DHT22;6603;47.066;15.396;2024-03-25T12:14:14;13.30;1.00
13074;DHT22;6603;47.066;15.396;2024-03-25T12:16:42;13.10;1.00
13074;DHT22;6603;47.066;15.396;2024-03-25T12:19:08;13.30;1.00
13074;DHT22;6603;47.066;15.396;2024-03-25T12:21:34;14.00;1.00
13074;DHT22;6603;47.066;15.396;2024-03-25T12:24:00;14.20;1.00
13074;DHT22;6603;47.066;15.396;2024-03-25T12:26:26;13.90;1.00
13074;DHT22;6603;47.066;15.396;2024-03-25T12:28:52;13.80;1.00
13074;DHT22;6603;47.066;15.396;2024-03-25T12:31:18;13.70;1.00
13074;DHT22;6603;47.066;15.396;2024-03-25T12:33:44;14.40;1.00
13074;DHT22;6603;47.066;15.396;2024-03-25T12:36:13;14.40;1.00
13074;DHT22;6603;47.066;15.396;2024-03-25T12:38:39;14.20;1.00
13074;DHT22;6603;47.066;15.396;2024-03-25T12:41:10;14.20;1.00
13074;DHT22;6603;47.066;15.396;2024-03-25T12:43:43;14.60;1.00
13074;DHT22;6603;47.066;15.396;2024-03-25T12:46:10;15.10;1.00
13074;DHT22;6603;47.066;15.396;2024-03-25T12:48:37;15.40;1.00
13074;DHT22;6603;47.066;15.396;2024-03-25T12:51:04;15.70;1.00
13074;DHT22;6603;47.066;15.396;2024-03-25T12:53:31;15.70;1.00
13074;DHT22;6603;47.066;15.396;2024-03-25T12:55:57;15.80;1.00
13074;DHT22;6603;47.066;15.396;2024-03-25T12:58:23;15.80;1.00
13074;DHT22;6603;47.066;15.396;2024-03-25T13:00:49;15.60;1.00
13074;DHT22;6603;47.066;15.396;2024-03-25T13:03:15;15.00;1.00
13074;DHT22;6603;47.066;15.396;2024-03-25T13:05:43;14.70;1.00
13074;DHT22;6603;47.066;15.396;2024-03-25T13:08:09;14.60;1.00
13074;DHT22;6603;47.066;15.396;2024-03-25T13:10:35;14.40;1.00
13074;DHT22;6603;47.066;15.396;2024-03-25T13:13:02;14.90;1.00
13074;DHT22;6603;47.066;15.396;2024-03-25T13:15:28;15.10;1.00
13074;DHT22;6603;47.066;15.396;2024-03-25T13:17:54;15.10;1.00
13074;DHT22;6603;47.066;15.396;2024-03-25T13:20:20;15.20;1.00
13074;DHT22;6603;47.066;15.396;2024-03-25T13:22:46;15.00;1.00
13074;DHT22;6603;47.066;15.396;2024-03-25T13:25:13;15.00;1.00
13074;DHT22;6603;47.066;15.396;2024-03-25T13:27:39;15.30;1.00
13074;DHT22;6603;47.066;15.396;2024-03-25T13:30:06;15.50;1.00
13074;DHT22;6603;47.066;15.396;2024-03-25T13:32:32;15.60;1.00
13074;DHT22;6603;47.066;15.396;2024-03-25T13:34:58;15.70;1.00
13074;DHT22;6603;47.066;15.396;2024-03-25T13:37:24;15.60;1.00
13074;DHT22;6603;47.066;15.396;2024-03-25T13:39:52;15.50;1.00
13074;DHT22;6603;47.066;15.396;2024-03-25T13:42:18;15.50;1.00
13074;DHT22;6603;47.066;15.396;2024-03-25T13:44:44;15.20;1.00
13074;DHT22;6603;47.066;15.396;2024-03-25T13:47:10;14.80;1.00
13074;DHT22;6603;47.066;15.396;2024-03-25T13:49:36;14.60;1.00
13074;DHT22;6603;47.066;15.396;2024-03-25T13:52:06;14.90;1.00
13074;DHT22;6603;47.066;15.396;2024-03-25T13:54:32;15.00;1.00
13074;DHT22;6603;47.066;15.396;2024-03-25T13:56:59;14.70;1.00
13074;DHT22;6603;47.066;15.396;2024-03-25T13:59:25;14.70;1.00
13074;DHT22;6603;47.066;15.396;2024-03-25T14:01:51;15.10;1.00
13074;DHT22;6603;47.066;15.396;2024-03-25T14:04:19;15.30;1.00
13074;DHT22;6603;47.066;15.396;2024-03-25T14:06:45;15.20;1.00
13074;DHT22;6603;47.066;15.396;2024-03-25T14:09:27;14.80;1.00
13074;DHT22;6603;47.066;15.396;2024-03-25T14:11:53;14.70;1.00
13074;DHT22;6603;47.066;15.396;2024-03-25T14:14:19;14.30;1.00
13074;DHT22;6603;47.066;15.396;2024-03-25T14:16:45;14.00;1.00
13074;DHT22;6603;47.066;15.396;2024-03-25T14:19:11;13.60;1.00
13074;DHT22;6603;47.066;15.396;2024-03-25T14:21:37;13.70;1.00
13074;DHT22;6603;47.066;15.396;2024-03-25T14:24:05;13.50;1.00
13074;DHT22;6603;47.066;15.396;2024-03-25T14:26:32;13.60;1.00
13074;DHT22;6603;47.066;15.396;2024-03-25T14:28:58;14.00;1.00
13074;DHT22;6603;47.066;15.396;2024-03-25T14:31:26;14.00;1.00
13074;DHT22;6603;47.066;15.396;2024-03-25T14:33:52;13.90;1.00
13074;DHT22;6603;47.066;15.396;2024-03-25T14:36:18;13.90;1.00
13074;DHT22;6603;47.066;15.396;2024-03-25T14:38:44;14.20;1.00
13074;DHT22;6603;47.066;15.396;2024-03-25T14:41:13;14.10;1.00
13074;DHT22;6603;47.066;15.396;2024-03-25T14:43:40;14.10;1.00
13074;DHT22;6603;47.066;15.396;2024-03-25T14:46:06;14.10;1.00
13074;DHT22;6603;47.066;15.396;2024-03-25T14:48:32;13.90;1.00
13074;DHT22;6603;47.066;15.396;2024-03-25T14:50:57;14.30;1.00
13074;DHT22;6603;47.066;15.396;2024-03-25T14:53:23;14.60;1.00
13074;DHT22;6603;47.066;15.396;2024-03-25T14:55:49;14.70;1.00
13074;DHT22;6603;47.066;15.396;2024-03-25T14:58:17;14.90;1.00
13074;DHT22;6603;47.066;15.396;2024-03-25T15:00:43;14.90;1.00
13074;DHT22;6603;47.066;15.396;2024-03-25T15:03:09;14.90;1.00
13074;DHT22;6603;47.066;15.396;2024-03-25T15:05:35;14.90;1.00
13074;DHT22;6603;47.066;15.396;2024-03-25T15:08:01;14.80;1.00
13074;DHT22;6603;47.066;15.396;2024-03-25T15:10:27;14.80;1.00
13074;DHT22;6603;47.066;15.396;2024-03-25T15:12:54;14.80;1.00
13074;DHT22;6603;47.066;15.396;2024-03-25T15:15:19;14.90;1.00
13074;DHT22;6603;47.066;15.396;2024-03-25T15:17:45;14.90;1.00
13074;DHT22;6603;47.066;15.396;2024-03-25T15:20:11;14.80;1.00
13074;DHT22;6603;47.066;15.396;2024-03-25T15:22:37;14.80;1.00
13074;DHT22;6603;47.066;15.396;2024-03-25T15:25:05;14.60;1.00
13074;DHT22;6603;47.066;15.396;2024-03-25T15:27:33;14.20;1.00
13074;DHT22;6603;47.066;15.396;2024-03-25T15:29:58;14.10;1.00
13074;DHT22;6603;47.066;15.396;2024-03-25T15:32:24;14.20;1.00
13074;DHT22;6603;47.066;15.396;2024-03-25T15:34:50;14.30;1.00
13074;DHT22;6603;47.066;15.396;2024-03-25T15:37:16;14.60;1.00
13074;DHT22;6603;47.066;15.396;2024-03-25T15:39:45;14.60;1.00
13074;DHT22;6603;47.066;15.396;2024-03-25T15:42:10;14.50;1.00
13074;DHT22;6603;47.066;15.396;2024-03-25T15:44:36;14.20;1.00
13074;DHT22;6603;47.066;15.396;2024-03-25T15:47:02;14.40;1.00
13074;DHT22;6603;47.066;15.396;2024-03-25T15:49:28;14.40;1.00